createdAt,value
2023-11-28T00:01:25.526Z,16.37
2023-11-28T00:03:52.859Z,18.20
2023-11-28T00:06:20.312Z,21.60
2023-11-28T00:08:48.612Z,21.77
2023-11-28T00:11:20.169Z,18.90
2023-11-28T00:13:47.804Z,26.00
2023-11-28T00:16:15.192Z,23.87
2023-11-28T00:18:42.333Z,21.90
2023-11-28T00:21:09.589Z,15.23
2023-11-28T00:23:37.035Z,21.23
2023-11-28T00:26:04.358Z,19.67
2023-11-28T00:28:31.548Z,17.70
2023-11-28T00:30:58.675Z,22.60
2023-11-28T00:33:25.703Z,18.07
2023-11-28T00:35:52.757Z,22.53
2023-11-28T00:38:19.795Z,17.17
2023-11-28T05:38:49.400Z,30.27
2023-11-28T05:41:16.580Z,35.73
2023-11-28T05:43:43.668Z,28.07
2023-11-28T05:46:10.751Z,30.10
2023-11-28T05:48:38.599Z,28.57
2023-11-28T05:51:06.342Z,27.47
2023-11-28T05:53:33.732Z,27.53
2023-11-28T05:56:01.010Z,28.03
2023-11-28T05:58:28.260Z,24.37
2023-11-28T06:00:55.452Z,32.63
2023-11-28T06:03:24.144Z,41.67
2023-11-28T06:05:51.191Z,41.63
2023-11-28T06:08:18.514Z,34.30
2023-11-28T06:10:46.063Z,27.07
2023-11-28T06:13:14.265Z,22.43
2023-11-28T06:15:41.314Z,25.13
2023-11-28T06:18:11.414Z,32.60
2023-11-28T06:20:38.640Z,24.40
2023-11-28T06:23:06.777Z,22.37
2023-11-28T06:25:34.279Z,24.90
2023-11-28T06:28:01.328Z,22.07
2023-11-28T06:30:28.954Z,25.03
2023-11-28T06:32:56.592Z,28.70
2023-11-28T06:35:23.823Z,27.97
2023-11-28T06:37:50.964Z,31.23
2023-11-28T06:40:22.033Z,25.57
2023-11-28T06:42:49.106Z,23.07
2023-11-28T06:45:17.369Z,23.87
2023-11-28T06:47:44.575Z,24.13
2023-11-28T06:50:11.876Z,23.87
2023-11-28T06:52:39.534Z,34.03
2023-11-28T06:55:08.183Z,21.03
2023-11-28T06:57:36.333Z,19.93
2023-11-28T07:00:04.603Z,21.03
2023-11-28T07:02:34.491Z,25.87
2023-11-28T07:05:01.661Z,21.30
2023-11-28T07:07:32.878Z,23.07
2023-11-28T07:09:59.931Z,36.37
2023-11-28T07:12:27.023Z,23.70
2023-11-28T07:14:54.067Z,21.37
2023-11-28T07:17:24.033Z,17.97
2023-11-28T07:19:51.194Z,18.23
2023-11-28T07:22:18.360Z,17.97
2023-11-28T07:24:48.638Z,19.83
2023-11-28T07:27:15.873Z,23.90
2023-11-28T07:29:43.027Z,20.07
2023-11-28T07:32:11.443Z,33.20
2023-11-28T07:34:39.304Z,26.83
2023-11-28T07:37:06.470Z,27.73
2023-11-28T07:39:33.822Z,30.10
2023-11-28T07:42:03.026Z,26.67
2023-11-28T07:44:31.185Z,29.00
2023-11-28T07:46:58.946Z,25.03
2023-11-28T07:49:26.197Z,34.27
2023-11-28T07:51:53.523Z,28.90
2023-11-28T07:54:23.203Z,32.27
2023-11-28T07:56:50.737Z,37.00
2023-11-28T07:59:19.072Z,34.53
2023-11-28T08:01:46.195Z,28.60
2023-11-28T08:04:13.386Z,29.87
2023-11-28T08:06:42.032Z,39.30
2023-11-28T08:09:09.880Z,29.17
2023-11-28T08:11:36.941Z,31.80
2023-11-28T08:14:04.223Z,24.40
2023-11-28T08:16:32.787Z,33.20
2023-11-28T08:18:59.924Z,44.83
2023-11-28T08:21:27.705Z,30.87
2023-11-28T08:23:56.219Z,30.67
2023-11-28T08:26:24.302Z,23.47
2023-11-28T08:28:53.137Z,35.43
2023-11-28T08:31:27.965Z,35.37
2023-11-28T08:33:55.157Z,28.83
2023-11-28T08:36:22.787Z,28.83
2023-11-28T08:38:50.496Z,26.93
2023-11-28T08:41:19.167Z,37.03
2023-11-28T08:43:46.380Z,29.20
2023-11-28T08:46:16.980Z,34.30
2023-11-28T08:48:45.012Z,30.47
2023-11-28T08:51:12.198Z,28.10
2023-11-28T08:53:39.310Z,29.57
2023-11-28T08:56:13.137Z,20.80
2023-11-28T08:58:41.142Z,29.60
2023-11-28T09:01:08.446Z,21.50
2023-11-28T09:03:35.761Z,26.73
2023-11-28T09:06:03.237Z,26.80
2023-11-28T09:08:30.536Z,25.10
2023-11-28T09:10:58.376Z,24.83
2023-11-28T09:13:27.996Z,17.77
2023-11-28T09:15:55.672Z,21.87
2023-11-28T09:18:23.324Z,22.53
2023-11-28T09:20:50.984Z,25.97
2023-11-28T09:23:18.226Z,20.60
2023-11-28T09:25:52.669Z,23.23
2023-11-28T09:28:24.671Z,23.37
2023-11-28T09:30:54.388Z,22.03
2023-11-28T09:33:22.773Z,23.50
2023-11-28T09:35:50.427Z,21.03
2023-11-28T09:38:17.748Z,24.63
2023-11-28T09:40:45.103Z,34.27
2023-11-28T09:43:12.368Z,25.93
2023-11-28T09:45:41.660Z,23.73
2023-11-28T09:48:14.288Z,23.70
2023-11-28T09:50:45.291Z,22.80
2023-11-28T09:53:13.818Z,24.77
2023-11-28T09:55:42.549Z,23.50
2023-11-28T09:58:10.828Z,23.73
2023-11-28T10:00:40.281Z,25.57
2023-11-28T10:03:07.548Z,33.07
2023-11-28T10:05:34.713Z,23.83
2023-11-28T10:08:02.476Z,26.50
2023-11-28T10:10:32.492Z,23.00
2023-11-28T10:12:59.689Z,28.87
2023-11-28T10:15:27.440Z,25.27
2023-11-28T10:17:55.800Z,27.10
2023-11-28T10:20:25.829Z,29.33
2023-11-28T10:22:55.230Z,25.00
2023-11-28T10:25:25.646Z,25.30
2023-11-28T10:28:00.194Z,26.13
2023-11-28T10:30:29.123Z,30.33
2023-11-28T10:33:00.313Z,31.40
2023-11-28T10:35:44.134Z,32.80
2023-11-28T10:38:16.389Z,42.23
2023-11-28T10:40:45.401Z,36.37
2023-11-28T10:43:12.644Z,33.97
2023-11-28T10:45:45.570Z,35.67
2023-11-28T10:48:14.135Z,27.10
2023-11-28T10:50:45.512Z,37.67
2023-11-28T10:53:17.039Z,31.97
2023-11-28T10:55:56.513Z,34.43
2023-11-28T10:58:23.994Z,33.37
2023-11-28T11:00:55.351Z,44.47
2023-11-28T11:03:24.750Z,47.07
2023-11-28T11:05:51.985Z,45.47
2023-11-28T11:08:23.270Z,52.40
2023-11-28T11:10:54.962Z,41.03
2023-11-28T11:13:47.298Z,42.23
2023-11-28T11:16:42.783Z,43.37
2023-11-28T11:19:11.167Z,49.43
2023-11-28T11:21:48.462Z,47.73
2023-11-28T11:24:19.859Z,34.80
2023-11-28T11:26:50.525Z,42.47
2023-11-28T11:29:26.568Z,37.23
2023-11-28T11:31:58.670Z,41.60
2023-11-28T11:34:49.162Z,38.80
2023-11-28T11:37:30.819Z,37.53
2023-11-28T11:40:00.853Z,38.67
2023-11-28T11:42:35.524Z,36.67
2023-11-28T11:45:05.685Z,34.10
2023-11-28T11:47:38.050Z,40.13
2023-11-28T11:50:08.003Z,49.73
2023-11-28T11:52:37.146Z,34.03
2023-11-28T11:55:13.400Z,48.90
2023-11-28T11:57:47.893Z,47.07
2023-11-28T12:00:16.777Z,47.43
2023-11-28T12:02:46.686Z,51.73
2023-11-28T12:05:16.097Z,46.10
2023-11-28T12:07:44.656Z,45.30
2023-11-28T12:10:14.171Z,46.63
2023-11-28T12:12:42.909Z,32.93
2023-11-28T12:15:13.562Z,42.80
2023-11-28T12:17:41.965Z,43.10
2023-11-28T12:20:10.977Z,50.53
2023-11-28T12:22:38.482Z,50.07
2023-11-28T12:25:06.052Z,32.83
2023-11-28T12:27:35.169Z,50.77
2023-11-28T12:30:02.871Z,51.27
2023-11-28T12:32:35.075Z,49.07
2023-11-28T12:35:06.091Z,43.43
2023-11-28T12:37:33.138Z,41.40
2023-11-28T12:40:01.248Z,36.60
2023-11-28T12:42:28.835Z,32.87
2023-11-28T12:44:59.361Z,39.37
2023-11-28T12:47:28.331Z,48.13
2023-11-28T12:49:56.976Z,36.93
2023-11-28T12:52:29.151Z,49.93
2023-11-28T12:54:57.422Z,42.67
2023-11-28T12:57:27.267Z,38.63
2023-11-28T12:59:54.781Z,35.73
2023-11-28T13:02:23.102Z,44.63
2023-11-28T13:04:50.488Z,42.57
2023-11-28T13:07:33.147Z,37.30
2023-11-28T13:10:06.417Z,33.47
2023-11-28T13:12:34.334Z,35.93
2023-11-28T13:15:01.739Z,38.80
2023-11-28T13:17:33.442Z,43.43
2023-11-28T13:20:01.218Z,38.37
2023-11-28T13:22:31.015Z,43.43
2023-11-28T13:24:58.070Z,40.10
2023-11-28T13:27:25.090Z,42.70
2023-11-28T13:29:52.197Z,31.07
2023-11-28T13:32:19.311Z,39.53
2023-11-28T13:34:47.535Z,30.77
2023-11-28T13:37:14.731Z,34.53
2023-11-28T13:39:44.163Z,39.27
2023-11-28T13:42:12.977Z,26.47
2023-11-28T13:44:40.493Z,35.57
2023-11-28T13:47:08.492Z,34.23
2023-11-28T13:49:38.290Z,39.97
2023-11-28T13:52:05.802Z,39.33
2023-11-28T13:54:34.480Z,39.90
2023-11-28T13:57:01.707Z,35.07
2023-11-28T13:59:31.878Z,39.27
2023-11-28T14:02:00.425Z,36.57
2023-11-28T14:04:28.674Z,41.47
2023-11-28T14:06:55.925Z,42.17
2023-11-28T14:09:23.901Z,31.03
2023-11-28T14:11:52.278Z,46.53
2023-11-28T14:14:19.878Z,43.07
2023-11-28T14:16:47.282Z,37.20
2023-11-28T14:19:16.088Z,47.77
2023-11-28T14:21:43.620Z,41.50
2023-11-28T14:24:10.774Z,40.83
2023-11-28T14:26:37.924Z,36.53
2023-11-28T14:29:05.200Z,38.50
2023-11-28T14:31:32.526Z,44.43
2023-11-28T14:34:02.053Z,33.03
2023-11-28T14:36:30.731Z,36.67
2023-11-28T14:38:57.758Z,41.47
2023-11-28T14:41:25.020Z,39.07
2023-11-28T14:43:52.655Z,44.67
2023-11-28T14:46:20.061Z,45.57
2023-11-28T14:48:47.300Z,36.63
2023-11-28T14:51:14.518Z,34.37
2023-11-28T14:53:41.774Z,38.07
2023-11-28T14:56:09.516Z,35.50
2023-11-28T14:58:37.273Z,44.40
2023-11-28T15:01:04.748Z,38.43
2023-11-28T15:03:32.022Z,45.13
2023-11-28T15:06:03.942Z,40.30
2023-11-28T15:08:32.937Z,45.27
2023-11-28T15:11:00.527Z,39.90
2023-11-28T15:13:28.338Z,42.57
2023-11-28T15:15:55.470Z,53.57
2023-11-28T15:18:22.911Z,45.77
2023-11-28T15:20:50.549Z,47.10
2023-11-28T15:23:17.968Z,44.03
2023-11-28T15:25:47.313Z,49.17
2023-11-28T15:28:18.888Z,41.77
2023-11-28T15:30:46.458Z,47.07
2023-11-28T15:33:15.158Z,50.00
2023-11-28T15:35:42.828Z,32.97
2023-11-28T15:38:09.947Z,36.73
2023-11-28T15:40:37.174Z,29.77
2023-11-28T15:43:05.457Z,34.00
2023-11-28T15:45:33.507Z,43.43
2023-11-28T15:48:01.793Z,46.53
2023-11-28T15:50:30.350Z,38.07
2023-11-28T15:52:57.762Z,41.73
2023-11-28T15:55:25.267Z,31.23
2023-11-28T15:57:55.210Z,25.23
2023-11-28T16:00:22.449Z,28.80
2023-11-28T16:02:51.729Z,35.33
2023-11-28T16:05:20.556Z,33.07
2023-11-28T16:07:51.033Z,39.83
2023-11-28T16:10:18.270Z,35.27
2023-11-28T16:12:46.313Z,38.60
2023-11-28T16:15:13.602Z,35.27
2023-11-28T16:17:41.826Z,38.93
2023-11-28T16:20:11.034Z,31.40
2023-11-28T16:32:44.184Z,38.90
2023-11-28T16:35:11.551Z,38.67
2023-11-28T16:37:41.045Z,53.47
2023-11-28T16:40:11.506Z,39.63
2023-11-28T16:42:40.085Z,46.23
2023-11-28T16:45:07.681Z,38.90
2023-11-28T16:47:34.937Z,52.20
2023-11-28T16:50:02.131Z,52.27
2023-11-28T16:52:30.960Z,44.53
2023-11-28T16:54:58.021Z,57.87
2023-11-28T16:57:26.572Z,57.07
2023-11-28T16:59:54.367Z,67.90
2023-11-28T17:02:21.658Z,53.53
2023-11-28T17:04:48.834Z,54.87
2023-11-28T17:07:16.133Z,49.67
2023-11-28T17:09:43.200Z,50.77
2023-11-28T17:12:10.208Z,66.60
2023-11-28T17:14:37.296Z,56.50
2023-11-28T17:17:05.441Z,52.97
2023-11-28T17:19:33.104Z,78.40
2023-11-28T17:22:00.231Z,65.87
2023-11-28T17:24:29.006Z,56.30
2023-11-28T17:26:56.345Z,57.30
2023-11-28T17:29:24.460Z,69.43
2023-11-28T17:31:55.162Z,77.77
2023-11-28T17:34:22.509Z,72.20
2023-11-28T17:36:50.550Z,62.40
2023-11-28T17:39:18.964Z,79.80
2023-11-28T17:41:47.099Z,74.23
2023-11-28T17:44:14.188Z,62.20
2023-11-28T17:46:41.371Z,76.30
2023-11-28T17:49:32.831Z,65.60
2023-11-28T17:52:05.363Z,83.30
2023-11-28T17:54:32.490Z,88.13
2023-11-28T17:56:59.639Z,94.87
2023-11-28T17:59:31.291Z,107.93
2023-11-28T18:02:00.120Z,102.37
2023-11-28T18:04:27.234Z,77.97
2023-11-28T18:06:59.252Z,82.70
2023-11-28T18:09:29.829Z,78.13
2023-11-28T18:11:56.877Z,83.77
2023-11-28T18:14:24.061Z,114.47
2023-11-28T18:16:51.391Z,87.10
2023-11-28T18:19:18.477Z,86.00
2023-11-28T18:21:46.296Z,92.40
2023-11-28T18:24:14.689Z,89.60
2023-11-28T18:26:43.591Z,81.20
2023-11-28T18:29:17.565Z,114.93
2023-11-28T18:31:49.082Z,71.07
2023-11-28T18:34:17.852Z,102.30
2023-11-28T18:36:46.164Z,77.43
2023-11-28T18:39:14.987Z,73.63
2023-11-28T18:41:45.077Z,93.20
2023-11-28T18:44:15.460Z,53.33
2023-11-28T18:46:43.324Z,140.30
2023-11-28T18:49:10.448Z,103.83
2023-11-28T18:51:38.376Z,112.93
2023-11-28T18:54:05.856Z,103.73
2023-11-28T18:56:33.780Z,113.40
2023-11-28T18:59:01.068Z,105.60
2023-11-28T19:01:29.423Z,106.83
2023-11-28T19:03:58.111Z,75.83
2023-11-28T19:06:30.772Z,112.43
2023-11-28T19:08:58.853Z,161.20
2023-11-28T19:11:29.934Z,88.53
2023-11-28T19:14:04.448Z,137.43
2023-11-28T19:16:33.999Z,124.87
2023-11-28T19:19:01.419Z,98.43
2023-11-28T19:21:28.532Z,91.47
2023-11-28T19:23:55.582Z,108.07
2023-11-28T19:26:22.963Z,94.57
2023-11-28T19:28:52.287Z,158.93
2023-11-28T19:31:20.040Z,120.27
2023-11-28T19:33:47.369Z,108.67
2023-11-28T19:36:14.424Z,114.27
2023-11-28T19:38:42.539Z,108.23
2023-11-28T19:41:11.517Z,92.63
2023-11-28T19:43:39.613Z,75.97
2023-11-28T19:46:07.794Z,76.33
2023-11-28T19:48:35.115Z,70.27
2023-11-28T19:51:02.513Z,117.10
2023-11-28T19:53:29.566Z,101.30
2023-11-28T19:55:57.852Z,89.57
2023-11-28T19:58:24.896Z,97.43
2023-11-28T20:00:52.133Z,107.87
2023-11-28T20:03:19.484Z,105.50
2023-11-28T20:05:46.933Z,119.80
2023-11-28T20:08:14.511Z,140.33
2023-11-28T20:10:41.609Z,135.00
2023-11-28T20:13:08.626Z,108.50
2023-11-28T20:15:36.789Z,145.47
2023-11-28T20:18:04.062Z,133.47
2023-11-28T20:20:31.427Z,130.20
2023-11-28T20:22:58.577Z,119.07
2023-11-28T20:25:25.652Z,142.87
2023-11-28T20:27:53.099Z,119.53
2023-11-28T20:30:20.673Z,110.53
2023-11-28T20:32:48.200Z,165.97
2023-11-28T20:35:15.395Z,175.90
2023-11-28T20:37:42.683Z,120.03
2023-11-28T20:40:10.636Z,123.80
2023-11-28T20:42:38.525Z,173.63
2023-11-28T20:45:06.351Z,156.27
2023-11-28T20:47:33.962Z,182.77
2023-11-28T20:50:01.232Z,134.33
2023-11-28T20:52:30.384Z,119.03
2023-11-28T20:54:57.403Z,133.40
2023-11-28T20:57:24.425Z,140.13
2023-11-28T20:59:52.409Z,151.40
2023-11-28T21:02:19.841Z,122.33
2023-11-28T21:04:47.143Z,111.83
2023-11-28T21:07:14.192Z,111.90
2023-11-28T21:09:42.920Z,133.83
2023-11-28T21:12:15.793Z,87.27
2023-11-28T21:14:42.983Z,96.60
2023-11-28T21:17:10.133Z,95.30
2023-11-28T21:19:37.321Z,107.43
2023-11-28T21:22:04.666Z,84.03
2023-11-28T21:24:31.734Z,80.67
2023-11-28T21:26:58.847Z,76.90
2023-11-28T21:29:26.207Z,63.30
2023-11-28T21:31:53.436Z,76.93
2023-11-28T21:34:20.544Z,70.90
2023-11-28T21:36:47.844Z,83.93
2023-11-28T21:39:15.955Z,77.23
2023-11-28T21:41:43.077Z,74.07
2023-11-28T21:44:10.186Z,62.77
2023-11-28T21:46:41.174Z,63.93
2023-11-28T21:49:09.623Z,65.27
2023-11-28T21:51:36.697Z,56.27
2023-11-28T21:54:05.153Z,56.27
2023-11-28T21:56:33.511Z,47.77
2023-11-28T21:59:02.034Z,64.67
2023-11-28T22:01:29.101Z,45.57
2023-11-28T22:03:56.532Z,41.63
2023-11-28T22:06:23.784Z,51.43
2023-11-28T22:08:57.277Z,50.70
2023-11-28T22:11:30.418Z,49.30
2023-11-28T22:13:58.259Z,52.67
2023-11-28T22:16:25.324Z,59.63
2023-11-28T22:18:52.364Z,56.70
2023-11-28T22:21:23.041Z,50.77
2023-11-28T22:23:52.822Z,59.30
2023-11-28T22:26:19.919Z,61.87
2023-11-28T22:28:46.928Z,53.40
2023-11-28T22:31:14.007Z,54.67
2023-11-28T22:33:42.228Z,57.53
2023-11-28T22:36:09.561Z,59.27
2023-11-28T22:38:37.000Z,54.90
2023-11-28T22:41:04.153Z,56.63
2023-11-28T22:43:31.324Z,65.90
2023-11-28T22:45:58.370Z,51.17
2023-11-28T22:48:26.707Z,59.83
2023-11-28T22:50:53.844Z,53.57
2023-11-28T22:53:20.928Z,46.10
2023-11-28T22:55:47.982Z,45.27
2023-11-28T22:58:16.025Z,52.43
2023-11-28T23:00:44.196Z,57.10
2023-11-28T23:03:11.333Z,56.83
2023-11-28T23:05:39.501Z,66.07
2023-11-28T23:08:06.546Z,58.43
2023-11-28T23:10:33.603Z,48.80
2023-11-28T23:13:00.690Z,54.27
2023-11-28T23:15:30.184Z,60.67
2023-11-28T23:17:57.418Z,53.40
2023-11-28T23:20:24.525Z,48.40
2023-11-28T23:22:56.032Z,53.70
2023-11-28T23:25:25.934Z,41.10
2023-11-28T23:27:56.479Z,48.83
2023-11-28T23:30:25.570Z,42.63
2023-11-28T23:32:53.017Z,50.90
2023-11-28T23:35:21.283Z,48.13
2023-11-28T23:37:48.330Z,34.53
2023-11-28T23:40:15.456Z,39.97
2023-11-28T23:42:47.189Z,36.73
2023-11-28T23:45:19.579Z,36.30
2023-11-28T23:47:50.008Z,29.50
2023-11-28T23:50:17.636Z,33.17
2023-11-28T23:52:44.842Z,33.97
2023-11-28T23:55:11.962Z,30.60
2023-11-28T23:57:39.037Z,35.97
